Cottonwood, ID (83522)

7:07 AM PDT on July 23, 2016 (GMT -0700)
King Street | | Change Station

Elev 3527 ft 46.05 °N, 116.35 °W | Updated 13 minutes ago

Clear
Clear
61.3 °F
Feels Like 61.3 °F
N
0.0
Wind Variable Wind from SW

Today
High -- | Low -- °F
--% Chance of Precip.
Yesterday
High -- | Low -- °F
Precip. -- in
Pressure 30.21 in
Visibility 10.0 miles
Clouds Clear
Dew Point 47 °F
Humidity 60%
Rainfall 0.00 in
Snow Depth Not available.
5:18 AM 8:25 PM
Waning Gibbous, 85% visible
METAR KGIC 231355Z AUTO 08004KT 10SM CLR 15/08 A3021 RMK AO1
Pressure 30.21 in
Visibility 10.0 miles
Clouds Clear
Dew Point 47 °F
Humidity 60%
Rainfall 0.00 in
Snow Depth Not available.
5:18 AM 8:25 PM
Waning Gibbous, 85% visible
METAR KGIC 231355Z AUTO 08004KT 10SM CLR 15/08 A3021 RMK AO1

10-Day Weather Forecast

Almanac

Astronomy

Jul. 23, 2016 Rise Set
Actual Time
Civil Twilight
Nautical Twilight
Astronomical Twilight
Moon
Length of Visible Light
Length of Day
Tomorrow will be .
, % of the Moon is Illuminated

Today's Extremes

State Highs State Lows

Community

WunderPhotos

Upload Photos

1,926,821 photos uploaded!

WunderBlog® & News

Nearby

Air Quality

  Air Quality AQ Index Pollutant
Not available.

Snow Depth

Station Depth Elevation

Earthquake Activity

City Distance Mag. Time & Date
Minimum magnitude displayed is 2.5.

Coastal Water Temperatures

Place Temperature

Stations

Nearby Weather Stations

Station Location Temp. Windchill Dew Point Humidity Wind Precip. Elev Updated Type
                   

Watches & Warnings

There are currently no watches in effect.